»·PEaware :: N88PT KSNA-KSEE

N88PT :: KSNA-KSEE

FLIGHT INFORMATION

Flight Status: Arrived
Operator: Privately registered:
United States
More flights under this callsign
Pilot: Milan K. (5249)
Aircraft: PILATUS PC-12 EAGLE
(PC12)
More flights by this aircraft type
Origin: KSNA John Wayne-Orange Co
United States
Destination: KSEE Gillespie
United States
More flights between these airports :: More routes between these airports
Route: V25 PACIF V208 LAX118R CARDI MZB320R MZB
File this flight plan on PilotEdge
Remarks: TEC ROUTE
Altitude:
(Current/Filed)
9,000ft
Speed:
(Current/Filed)
200kts
Departed: 29-Dec-18 01:11 PM
Arrived: 29-Dec-18 01:36 PM
Distance/Time
Traveled:
68nm/0:25
Distance/Time
To Go:
Arrived

Flight Plot

Page will automatically refresh every two minutes.


Map Options




Map Legend


Flown Route
Filed Route
Departure Airport
Arrival Airport
Navaid (VOR, NDB)
Fix

Horizontal Profiles

Position Reports

Time Latitude Longitude Heading Altitude Ground
Speed
29-Dec-18 12:52 33.676231 -117.871025 198 60ft 0kts
29-Dec-18 12:53 33.676231 -117.871025 198 60ft 0kts
29-Dec-18 12:54 33.676231 -117.871025 198 60ft 0kts
29-Dec-18 12:55 33.676231 -117.871025 198 60ft 0kts
29-Dec-18 12:56 33.676231 -117.871025 198 60ft 0kts
29-Dec-18 12:57 33.676231 -117.871025 198 60ft 0kts
29-Dec-18 12:58 33.676231 -117.871025 198 60ft 0kts
29-Dec-18 12:59 33.676231 -117.871025 198 60ft 0kts
29-Dec-18 13:00 33.676231 -117.871025 198 60ft 0kts
29-Dec-18 13:01 33.676231 -117.871025 198 60ft 0kts
29-Dec-18 13:02 33.676231 -117.871025 198 60ft 0kts
29-Dec-18 13:03 33.676231 -117.871025 198 60ft 0kts
29-Dec-18 13:04 33.676231 -117.871025 198 60ft 0kts
29-Dec-18 13:05 33.675745 -117.870793 105 60ft 0kts
29-Dec-18 13:06 33.678995 -117.868234 25 60ft 24kts
29-Dec-18 13:08 33.681240 -117.866436 118 60ft 0kts
29-Dec-18 13:09 33.681226 -117.866399 109 60ft 0kts
29-Dec-18 13:10 33.681226 -117.866399 109 60ft 0kts
29-Dec-18 13:11 33.670141 -117.872634 211 331ft 105kts
29-Dec-18 13:12 33.640498 -117.882395 186 1458ft 150kts
29-Dec-18 13:13 33.595566 -117.888546 186 2807ft 176kts
29-Dec-18 13:14 33.546408 -117.895367 186 4306ft 186kts
29-Dec-18 13:15 33.493404 -117.902988 186 5639ft 201kts
29-Dec-18 13:16 33.438169 -117.897227 149 6709ft 214kts
29-Dec-18 13:17 33.390750 -117.856799 134 7767ft 217kts
29-Dec-18 13:18 33.344009 -117.808609 133 8416ft 231kts
29-Dec-18 13:19 33.295763 -117.758183 132 8989ft 237kts
29-Dec-18 13:20 33.277524 -117.690201 94 8999ft 221kts
29-Dec-18 13:21 33.266645 -117.619447 94 8998ft 219kts
29-Dec-18 13:22 33.242366 -117.554689 126 8999ft 233kts
29-Dec-18 13:23 33.198695 -117.499568 126 8997ft 234kts
29-Dec-18 13:24 33.154501 -117.444222 127 8994ft 236kts
29-Dec-18 13:25 33.112228 -117.387575 111 9003ft 232kts
29-Dec-18 13:26 33.082288 -117.320142 111 8998ft 235kts
29-Dec-18 13:27 33.052294 -117.252997 111 8997ft 232kts
29-Dec-18 13:27 33.027403 -117.198059 111 8995ft 228kts
29-Dec-18 13:29 33.002170 -117.120537 101 7891ft 206kts
29-Dec-18 13:29 32.989054 -117.069498 101 6438ft 190kts
29-Dec-18 13:31 32.958826 -117.013267 142 4522ft 183kts
29-Dec-18 13:31 32.924983 -116.987558 150 3327ft 177kts
29-Dec-18 13:33 32.874240 -116.972525 180 1890ft 142kts
29-Dec-18 13:33 32.849253 -116.972828 177 1017ft 88kts
29-Dec-18 13:34 32.825133 -116.972424 178 392ft 68kts
29-Dec-18 13:35 32.822797 -116.972902 250 392ft 0kts
29-Dec-18 13:36 32.822546 -116.973980 197 392ft 17kts
29-Dec-18 13:37 32.822254 -116.974019 177 392ft 0kts
29-Dec-18 13:38 32.822254 -116.974019 177 392ft 0kts
29-Dec-18 13:39 32.822254 -116.974019 177 392ft 0kts
29-Dec-18 13:40 32.822254 -116.974019 177 392ft 0kts
29-Dec-18 13:41 32.822254 -116.974019 177 392ft 0kts
29-Dec-18 13:42 32.822254 -116.974019 177 392ft 0kts
29-Dec-18 13:43 32.822254 -116.974019 177 392ft 0kts
29-Dec-18 13:44 32.822254 -116.974019 177 392ft 0kts
29-Dec-18 13:45 32.822254 -116.974019 177 392ft 0kts
29-Dec-18 13:46 32.822254 -116.974019 177 392ft 0kts
29-Dec-18 13:47 32.822254 -116.974019 177 392ft 0kts
29-Dec-18 13:48 32.822254 -116.974019 177 392ft 0kts
29-Dec-18 13:49 32.822254 -116.974019 177 392ft 0kts
29-Dec-18 13:50 32.822254 -116.974019 177 392ft 0kts

Navigation Log

Ident Type
Flight plan parsing failed, navigation log unavailable